sensor_id;sensor_type;location;lat;lon;timestamp;P1;durP1;ratioP1;P2;durP2;ratioP2
73113;SDS011;61301;51.956;5.876;2024-03-25T00:01:35;12.82;;;3.25;;
73113;SDS011;61301;51.956;5.876;2024-03-25T00:04:03;12.65;;;2.65;;
73113;SDS011;61301;51.956;5.876;2024-03-25T00:06:29;11.15;;;2.40;;
73113;SDS011;61301;51.956;5.876;2024-03-25T00:09:01;7.70;;;2.25;;
73113;SDS011;61301;51.956;5.876;2024-03-25T00:11:28;12.25;;;2.35;;
73113;SDS011;61301;51.956;5.876;2024-03-25T00:13:54;14.35;;;2.63;;
73113;SDS011;61301;51.956;5.876;2024-03-25T00:16:22;11.10;;;2.47;;
73113;SDS011;61301;51.956;5.876;2024-03-25T00:18:48;12.25;;;3.17;;
73113;SDS011;61301;51.956;5.876;2024-03-25T00:21:14;12.80;;;2.08;;
73113;SDS011;61301;51.956;5.876;2024-03-25T00:23:40;9.25;;;2.67;;
73113;SDS011;61301;51.956;5.876;2024-03-25T00:26:06;14.77;;;3.33;;
73113;SDS011;61301;51.956;5.876;2024-03-25T00:28:32;7.85;;;2.30;;
73113;SDS011;61301;51.956;5.876;2024-03-25T00:30:59;12.35;;;2.42;;
73113;SDS011;61301;51.956;5.876;2024-03-25T00:33:25;8.18;;;2.00;;
73113;SDS011;61301;51.956;5.876;2024-03-25T00:35:51;9.73;;;1.80;;
73113;SDS011;61301;51.956;5.876;2024-03-25T00:38:18;3.88;;;1.85;;
73113;SDS011;61301;51.956;5.876;2024-03-25T00:40:45;5.72;;;1.70;;
73113;SDS011;61301;51.956;5.876;2024-03-25T00:43:11;8.85;;;1.80;;
73113;SDS011;61301;51.956;5.876;2024-03-25T00:45:37;7.95;;;1.63;;
73113;SDS011;61301;51.956;5.876;2024-03-25T00:48:04;13.75;;;2.72;;
73113;SDS011;61301;51.956;5.876;2024-03-25T00:50:30;11.02;;;2.33;;
73113;SDS011;61301;51.956;5.876;2024-03-25T00:52:56;8.88;;;2.22;;
73113;SDS011;61301;51.956;5.876;2024-03-25T00:55:22;18.48;;;2.78;;
73113;SDS011;61301;51.956;5.876;2024-03-25T00:57:48;10.40;;;2.70;;
73113;SDS011;61301;51.956;5.876;2024-03-25T01:00:15;9.23;;;2.13;;
73113;SDS011;61301;51.956;5.876;2024-03-25T01:02:42;16.52;;;3.15;;
73113;SDS011;61301;51.956;5.876;2024-03-25T01:05:08;12.43;;;2.80;;
73113;SDS011;61301;51.956;5.876;2024-03-25T01:07:35;18.17;;;3.35;;
73113;SDS011;61301;51.956;5.876;2024-03-25T01:10:01;14.52;;;3.13;;
73113;SDS011;61301;51.956;5.876;2024-03-25T01:12:28;19.58;;;2.95;;
73113;SDS011;61301;51.956;5.876;2024-03-25T01:14:54;16.15;;;3.15;;
73113;SDS011;61301;51.956;5.876;2024-03-25T01:17:20;20.48;;;4.53;;
73113;SDS011;61301;51.956;5.876;2024-03-25T01:19:46;13.68;;;3.47;;
73113;SDS011;61301;51.956;5.876;2024-03-25T01:22:12;11.98;;;2.80;;
73113;SDS011;61301;51.956;5.876;2024-03-25T01:24:39;16.20;;;3.13;;
73113;SDS011;61301;51.956;5.876;2024-03-25T01:27:05;23.95;;;4.32;;
73113;SDS011;61301;51.956;5.876;2024-03-25T01:29:32;19.35;;;3.60;;
73113;SDS011;61301;51.956;5.876;2024-03-25T01:31:58;11.88;;;2.63;;
73113;SDS011;61301;51.956;5.876;2024-03-25T01:34:25;17.45;;;4.05;;
73113;SDS011;61301;51.956;5.876;2024-03-25T01:36:51;19.08;;;3.13;;
73113;SDS011;61301;51.956;5.876;2024-03-25T01:39:20;21.70;;;3.17;;
73113;SDS011;61301;51.956;5.876;2024-03-25T01:41:46;16.00;;;3.55;;
73113;SDS011;61301;51.956;5.876;2024-03-25T01:44:12;21.08;;;3.80;;
73113;SDS011;61301;51.956;5.876;2024-03-25T01:46:38;14.88;;;3.17;;
73113;SDS011;61301;51.956;5.876;2024-03-25T01:49:05;16.48;;;3.50;;
73113;SDS011;61301;51.956;5.876;2024-03-25T01:51:32;13.27;;;3.05;;
73113;SDS011;61301;51.956;5.876;2024-03-25T01:53:59;17.45;;;3.20;;
73113;SDS011;61301;51.956;5.876;2024-03-25T01:56:26;17.92;;;3.70;;
73113;SDS011;61301;51.956;5.876;2024-03-25T01:58:54;14.13;;;3.08;;
73113;SDS011;61301;51.956;5.876;2024-03-25T02:01:20;12.10;;;2.85;;
73113;SDS011;61301;51.956;5.876;2024-03-25T02:03:47;13.80;;;3.10;;
73113;SDS011;61301;51.956;5.876;2024-03-25T02:06:15;15.85;;;3.45;;
73113;SDS011;61301;51.956;5.876;2024-03-25T02:08:43;15.80;;;4.18;;
73113;SDS011;61301;51.956;5.876;2024-03-25T02:11:10;16.33;;;3.60;;
73113;SDS011;61301;51.956;5.876;2024-03-25T02:13:38;17.20;;;3.60;;
73113;SDS011;61301;51.956;5.876;2024-03-25T02:16:04;13.75;;;2.97;;
73113;SDS011;61301;51.956;5.876;2024-03-25T02:18:31;14.15;;;3.45;;
73113;SDS011;61301;51.956;5.876;2024-03-25T02:20:57;13.82;;;3.25;;
73113;SDS011;61301;51.956;5.876;2024-03-25T02:23:24;15.20;;;4.03;;
73113;SDS011;61301;51.956;5.876;2024-03-25T02:25:51;15.88;;;2.85;;
73113;SDS011;61301;51.956;5.876;2024-03-25T02:28:18;13.73;;;2.85;;
73113;SDS011;61301;51.956;5.876;2024-03-25T02:30:44;11.25;;;2.80;;
73113;SDS011;61301;51.956;5.876;2024-03-25T02:33:11;16.05;;;3.00;;
73113;SDS011;61301;51.956;5.876;2024-03-25T02:35:37;16.92;;;3.63;;
73113;SDS011;61301;51.956;5.876;2024-03-25T02:38:05;17.30;;;3.70;;
73113;SDS011;61301;51.956;5.876;2024-03-25T02:40:31;21.70;;;3.67;;
73113;SDS011;61301;51.956;5.876;2024-03-25T02:42:58;19.30;;;3.50;;
73113;SDS011;61301;51.956;5.876;2024-03-25T02:45:24;21.38;;;4.10;;
73113;SDS011;61301;51.956;5.876;2024-03-25T02:47:51;24.52;;;3.78;;
73113;SDS011;61301;51.956;5.876;2024-03-25T02:50:17;21.25;;;3.80;;
73113;SDS011;61301;51.956;5.876;2024-03-25T02:52:43;19.58;;;4.13;;
73113;SDS011;61301;51.956;5.876;2024-03-25T02:55:09;19.55;;;4.25;;
73113;SDS011;61301;51.956;5.876;2024-03-25T02:57:35;23.02;;;3.92;;
73113;SDS011;61301;51.956;5.876;2024-03-25T03:00:01;20.83;;;4.22;;
73113;SDS011;61301;51.956;5.876;2024-03-25T03:02:28;20.55;;;4.00;;
73113;SDS011;61301;51.956;5.876;2024-03-25T03:04:55;18.75;;;4.00;;
73113;SDS011;61301;51.956;5.876;2024-03-25T03:07:23;11.80;;;3.45;;
73113;SDS011;61301;51.956;5.876;2024-03-25T03:09:51;25.42;;;4.10;;
73113;SDS011;61301;51.956;5.876;2024-03-25T03:12:17;17.55;;;4.07;;
73113;SDS011;61301;51.956;5.876;2024-03-25T03:14:43;21.55;;;4.13;;
73113;SDS011;61301;51.956;5.876;2024-03-25T03:17:09;18.80;;;3.80;;
73113;SDS011;61301;51.956;5.876;2024-03-25T03:19:36;19.85;;;3.53;;
73113;SDS011;61301;51.956;5.876;2024-03-25T03:22:02;14.80;;;3.83;;
73113;SDS011;61301;51.956;5.876;2024-03-25T03:24:28;18.58;;;4.72;;
73113;SDS011;61301;51.956;5.876;2024-03-25T03:26:54;15.13;;;4.30;;
73113;SDS011;61301;51.956;5.876;2024-03-25T03:29:20;18.90;;;5.00;;
73113;SDS011;61301;51.956;5.876;2024-03-25T03:31:46;17.23;;;4.00;;
73113;SDS011;61301;51.956;5.876;2024-03-25T03:34:12;14.00;;;3.92;;
73113;SDS011;61301;51.956;5.876;2024-03-25T03:36:38;14.43;;;4.20;;
73113;SDS011;61301;51.956;5.876;2024-03-25T03:39:06;18.88;;;4.13;;
73113;SDS011;61301;51.956;5.876;2024-03-25T03:41:34;17.08;;;4.18;;
73113;SDS011;61301;51.956;5.876;2024-03-25T03:44:01;15.90;;;4.07;;
73113;SDS011;61301;51.956;5.876;2024-03-25T03:46:27;20.15;;;4.05;;
73113;SDS011;61301;51.956;5.876;2024-03-25T03:48:54;14.07;;;4.13;;
73113;SDS011;61301;51.956;5.876;2024-03-25T03:51:20;12.90;;;3.55;;
73113;SDS011;61301;51.956;5.876;2024-03-25T03:53:46;18.75;;;4.95;;
73113;SDS011;61301;51.956;5.876;2024-03-25T03:56:12;14.95;;;3.60;;
73113;SDS011;61301;51.956;5.876;2024-03-25T03:58:38;7.32;;;2.85;;
73113;SDS011;61301;51.956;5.876;2024-03-25T04:01:04;8.93;;;2.53;;
73113;SDS011;61301;51.956;5.876;2024-03-25T04:03:30;6.55;;;2.35;;
73113;SDS011;61301;51.956;5.876;2024-03-25T04:05:56;6.72;;;2.08;;
73113;SDS011;61301;51.956;5.876;2024-03-25T04:08:22;9.27;;;3.67;;
73113;SDS011;61301;51.956;5.876;2024-03-25T04:10:51;12.10;;;2.85;;
73113;SDS011;61301;51.956;5.876;2024-03-25T04:13:17;5.95;;;2.75;;
73113;SDS011;61301;51.956;5.876;2024-03-25T04:15:43;6.90;;;1.65;;
73113;SDS011;61301;51.956;5.876;2024-03-25T04:18:09;3.85;;;1.92;;
73113;SDS011;61301;51.956;5.876;2024-03-25T04:20:37;6.25;;;1.92;;
73113;SDS011;61301;51.956;5.876;2024-03-25T04:23:04;9.25;;;2.80;;
73113;SDS011;61301;51.956;5.876;2024-03-25T04:25:33;11.18;;;3.25;;
73113;SDS011;61301;51.956;5.876;2024-03-25T04:28:03;10.43;;;3.50;;
73113;SDS011;61301;51.956;5.876;2024-03-25T04:30:31;16.98;;;4.43;;
73113;SDS011;61301;51.956;5.876;2024-03-25T04:32:59;17.77;;;5.40;;
73113;SDS011;61301;51.956;5.876;2024-03-25T04:35:25;15.45;;;4.85;;
73113;SDS011;61301;51.956;5.876;2024-03-25T04:37:51;14.70;;;5.00;;
73113;SDS011;61301;51.956;5.876;2024-03-25T04:40:17;18.80;;;5.13;;
73113;SDS011;61301;51.956;5.876;2024-03-25T04:42:44;18.25;;;4.85;;
73113;SDS011;61301;51.956;5.876;2024-03-25T04:45:11;14.57;;;4.72;;
73113;SDS011;61301;51.956;5.876;2024-03-25T04:47:40;15.15;;;3.72;;
73113;SDS011;61301;51.956;5.876;2024-03-25T04:50:06;14.23;;;5.55;;
73113;SDS011;61301;51.956;5.876;2024-03-25T04:52:32;16.73;;;5.00;;
73113;SDS011;61301;51.956;5.876;2024-03-25T04:54:59;20.77;;;5.28;;
73113;SDS011;61301;51.956;5.876;2024-03-25T04:57:25;16.45;;;5.55;;
73113;SDS011;61301;51.956;5.876;2024-03-25T04:59:51;20.42;;;5.43;;
73113;SDS011;61301;51.956;5.876;2024-03-25T05:02:17;16.02;;;5.05;;
73113;SDS011;61301;51.956;5.876;2024-03-25T05:04:44;13.88;;;4.75;;
73113;SDS011;61301;51.956;5.876;2024-03-25T05:07:10;9.45;;;3.55;;
73113;SDS011;61301;51.956;5.876;2024-03-25T05:09:38;14.73;;;5.07;;
73113;SDS011;61301;51.956;5.876;2024-03-25T05:12:04;16.67;;;4.55;;
73113;SDS011;61301;51.956;5.876;2024-03-25T05:14:31;23.83;;;6.25;;
73113;SDS011;61301;51.956;5.876;2024-03-25T05:16:57;17.88;;;5.38;;
73113;SDS011;61301;51.956;5.876;2024-03-25T05:19:23;15.13;;;5.00;;
73113;SDS011;61301;51.956;5.876;2024-03-25T05:21:49;14.07;;;4.68;;
73113;SDS011;61301;51.956;5.876;2024-03-25T05:24:15;13.02;;;4.35;;
73113;SDS011;61301;51.956;5.876;2024-03-25T05:26:41;16.88;;;4.47;;
73113;SDS011;61301;51.956;5.876;2024-03-25T05:29:07;15.82;;;4.90;;
73113;SDS011;61301;51.956;5.876;2024-03-25T05:31:38;16.10;;;6.85;;
73113;SDS011;61301;51.956;5.876;2024-03-25T05:34:20;13.35;;;4.68;;
73113;SDS011;61301;51.956;5.876;2024-03-25T05:36:46;13.13;;;4.20;;
73113;SDS011;61301;51.956;5.876;2024-03-25T05:39:13;12.10;;;5.40;;
73113;SDS011;61301;51.956;5.876;2024-03-25T05:41:40;18.40;;;5.93;;
73113;SDS011;61301;51.956;5.876;2024-03-25T05:44:06;12.25;;;3.92;;
73113;SDS011;61301;51.956;5.876;2024-03-25T05:46:32;21.35;;;6.05;;
73113;SDS011;61301;51.956;5.876;2024-03-25T05:49:01;16.08;;;4.47;;
73113;SDS011;61301;51.956;5.876;2024-03-25T05:51:27;13.60;;;4.40;;
73113;SDS011;61301;51.956;5.876;2024-03-25T05:53:54;14.93;;;5.13;;
73113;SDS011;61301;51.956;5.876;2024-03-25T05:56:20;12.13;;;4.20;;
73113;SDS011;61301;51.956;5.876;2024-03-25T05:58:46;10.98;;;3.40;;
73113;SDS011;61301;51.956;5.876;2024-03-25T06:01:12;13.70;;;5.28;;
73113;SDS011;61301;51.956;5.876;2024-03-25T06:03:39;10.68;;;3.63;;
73113;SDS011;61301;51.956;5.876;2024-03-25T06:06:05;9.25;;;2.55;;
73113;SDS011;61301;51.956;5.876;2024-03-25T06:08:33;14.18;;;3.95;;
73113;SDS011;61301;51.956;5.876;2024-03-25T06:11:02;11.32;;;3.30;;
73113;SDS011;61301;51.956;5.876;2024-03-25T06:13:29;9.18;;;2.83;;
73113;SDS011;61301;51.956;5.876;2024-03-25T06:15:55;12.25;;;4.35;;
73113;SDS011;61301;51.956;5.876;2024-03-25T06:18:21;10.77;;;3.55;;
73113;SDS011;61301;51.956;5.876;2024-03-25T06:20:48;16.60;;;4.45;;
73113;SDS011;61301;51.956;5.876;2024-03-25T06:23:27;16.73;;;4.10;;
73113;SDS011;61301;51.956;5.876;2024-03-25T06:25:54;10.85;;;3.17;;
73113;SDS011;61301;51.956;5.876;2024-03-25T06:28:22;15.30;;;5.25;;
73113;SDS011;61301;51.956;5.876;2024-03-25T06:30:49;9.10;;;3.33;;
73113;SDS011;61301;51.956;5.876;2024-03-25T06:33:34;15.82;;;4.22;;
73113;SDS011;61301;51.956;5.876;2024-03-25T06:36:19;13.65;;;3.80;;
73113;SDS011;61301;51.956;5.876;2024-03-25T06:38:45;13.55;;;3.80;;
73113;SDS011;61301;51.956;5.876;2024-03-25T06:41:11;9.23;;;3.25;;
73113;SDS011;61301;51.956;5.876;2024-03-25T06:43:37;7.40;;;2.92;;
73113;SDS011;61301;51.956;5.876;2024-03-25T06:46:04;16.13;;;4.10;;
73113;SDS011;61301;51.956;5.876;2024-03-25T06:48:34;12.43;;;3.50;;
73113;SDS011;61301;51.956;5.876;2024-03-25T06:51:00;7.55;;;2.83;;
73113;SDS011;61301;51.956;5.876;2024-03-25T06:53:28;13.68;;;3.58;;
73113;SDS011;61301;51.956;5.876;2024-03-25T06:55:55;13.65;;;4.43;;
73113;SDS011;61301;51.956;5.876;2024-03-25T06:58:24;19.20;;;4.68;;
73113;SDS011;61301;51.956;5.876;2024-03-25T07:00:51;22.00;;;4.57;;
73113;SDS011;61301;51.956;5.876;2024-03-25T07:03:18;13.75;;;4.13;;
73113;SDS011;61301;51.956;5.876;2024-03-25T07:05:45;16.50;;;4.75;;
73113;SDS011;61301;51.956;5.876;2024-03-25T07:08:12;10.50;;;3.67;;
73113;SDS011;61301;51.956;5.876;2024-03-25T07:10:41;12.55;;;3.83;;
73113;SDS011;61301;51.956;5.876;2024-03-25T07:13:07;15.32;;;4.43;;
73113;SDS011;61301;51.956;5.876;2024-03-25T07:15:35;15.95;;;4.00;;
73113;SDS011;61301;51.956;5.876;2024-03-25T07:18:02;9.65;;;3.45;;
73113;SDS011;61301;51.956;5.876;2024-03-25T13:14:15;4.43;;;2.15;;
73113;SDS011;61301;51.956;5.876;2024-03-25T13:30:04;6.43;;;1.70;;
73113;SDS011;61301;51.956;5.876;2024-03-25T13:32:31;7.25;;;2.13;;
73113;SDS011;61301;51.956;5.876;2024-03-25T13:34:57;3.00;;;1.90;;
73113;SDS011;61301;51.956;5.876;2024-03-25T13:37:23;3.95;;;2.20;;
73113;SDS011;61301;51.956;5.876;2024-03-25T13:39:50;6.78;;;2.40;;
73113;SDS011;61301;51.956;5.876;2024-03-25T13:42:16;6.22;;;2.10;;
73113;SDS011;61301;51.956;5.876;2024-03-25T13:44:42;5.93;;;2.05;;
73113;SDS011;61301;51.956;5.876;2024-03-25T13:47:08;6.68;;;2.45;;
73113;SDS011;61301;51.956;5.876;2024-03-25T13:49:34;4.75;;;1.48;;
73113;SDS011;61301;51.956;5.876;2024-03-25T13:52:01;10.35;;;2.63;;
73113;SDS011;61301;51.956;5.876;2024-03-25T13:54:30;5.43;;;2.30;;
73113;SDS011;61301;51.956;5.876;2024-03-25T13:56:59;3.85;;;2.00;;
73113;SDS011;61301;51.956;5.876;2024-03-25T13:59:25;5.75;;;1.77;;
73113;SDS011;61301;51.956;5.876;2024-03-25T14:01:51;6.00;;;2.50;;
73113;SDS011;61301;51.956;5.876;2024-03-25T14:04:37;5.65;;;1.90;;
73113;SDS011;61301;51.956;5.876;2024-03-25T14:07:03;4.57;;;2.25;;
73113;SDS011;61301;51.956;5.876;2024-03-25T14:09:29;4.90;;;2.20;;
73113;SDS011;61301;51.956;5.876;2024-03-25T14:11:56;5.30;;;2.33;;
73113;SDS011;61301;51.956;5.876;2024-03-25T14:14:22;5.55;;;2.55;;
73113;SDS011;61301;51.956;5.876;2024-03-25T14:16:48;6.93;;;2.40;;
73113;SDS011;61301;51.956;5.876;2024-03-25T14:19:14;3.33;;;1.65;;
73113;SDS011;61301;51.956;5.876;2024-03-25T14:21:40;4.65;;;1.80;;
73113;SDS011;61301;51.956;5.876;2024-03-25T14:24:06;4.32;;;2.47;;
73113;SDS011;61301;51.956;5.876;2024-03-25T14:26:33;6.15;;;2.47;;
73113;SDS011;61301;51.956;5.876;2024-03-25T14:28:59;6.57;;;2.65;;
73113;SDS011;61301;51.956;5.876;2024-03-25T14:31:28;5.15;;;2.40;;
73113;SDS011;61301;51.956;5.876;2024-03-25T14:33:58;4.07;;;2.08;;
73113;SDS011;61301;51.956;5.876;2024-03-25T14:36:24;5.70;;;2.42;;
73113;SDS011;61301;51.956;5.876;2024-03-25T14:38:50;3.70;;;2.05;;
73113;SDS011;61301;51.956;5.876;2024-03-25T14:41:20;7.22;;;2.33;;
73113;SDS011;61301;51.956;5.876;2024-03-25T14:43:47;4.93;;;2.53;;
73113;SDS011;61301;51.956;5.876;2024-03-25T14:46:16;5.18;;;2.17;;
73113;SDS011;61301;51.956;5.876;2024-03-25T14:48:42;4.18;;;2.33;;
73113;SDS011;61301;51.956;5.876;2024-03-25T14:51:09;8.00;;;2.80;;
73113;SDS011;61301;51.956;5.876;2024-03-25T14:53:35;5.30;;;2.28;;
73113;SDS011;61301;51.956;5.876;2024-03-25T14:56:01;3.20;;;1.95;;
73113;SDS011;61301;51.956;5.876;2024-03-25T14:58:27;5.55;;;2.03;;
73113;SDS011;61301;51.956;5.876;2024-03-25T15:00:53;3.38;;;1.73;;
73113;SDS011;61301;51.956;5.876;2024-03-25T15:03:19;4.63;;;1.92;;
73113;SDS011;61301;51.956;5.876;2024-03-25T15:05:45;6.05;;;2.58;;
73113;SDS011;61301;51.956;5.876;2024-03-25T15:08:11;9.15;;;2.05;;
73113;SDS011;61301;51.956;5.876;2024-03-25T15:10:38;6.07;;;2.10;;
73113;SDS011;61301;51.956;5.876;2024-03-25T15:13:04;5.82;;;2.63;;
73113;SDS011;61301;51.956;5.876;2024-03-25T15:15:32;4.88;;;2.10;;
73113;SDS011;61301;51.956;5.876;2024-03-25T15:18:02;5.43;;;2.65;;
73113;SDS011;61301;51.956;5.876;2024-03-25T15:20:28;9.23;;;3.17;;
73113;SDS011;61301;51.956;5.876;2024-03-25T15:22:54;5.18;;;2.63;;
73113;SDS011;61301;51.956;5.876;2024-03-25T15:25:20;8.07;;;2.80;;
73113;SDS011;61301;51.956;5.876;2024-03-25T15:27:46;7.10;;;2.70;;
73113;SDS011;61301;51.956;5.876;2024-03-25T15:30:12;6.65;;;2.85;;
73113;SDS011;61301;51.956;5.876;2024-03-25T15:32:39;7.57;;;2.45;;
73113;SDS011;61301;51.956;5.876;2024-03-25T15:35:05;7.32;;;2.75;;
73113;SDS011;61301;51.956;5.876;2024-03-25T15:37:31;6.90;;;2.60;;
73113;SDS011;61301;51.956;5.876;2024-03-25T15:39:57;6.45;;;3.00;;
73113;SDS011;61301;51.956;5.876;2024-03-25T15:42:24;6.90;;;2.58;;
73113;SDS011;61301;51.956;5.876;2024-03-25T15:44:50;6.43;;;2.70;;
73113;SDS011;61301;51.956;5.876;2024-03-25T15:47:18;4.90;;;2.25;;
73113;SDS011;61301;51.956;5.876;2024-03-25T15:49:45;8.70;;;3.17;;
73113;SDS011;61301;51.956;5.876;2024-03-25T15:52:12;5.68;;;2.70;;
73113;SDS011;61301;51.956;5.876;2024-03-25T15:54:42;6.82;;;2.85;;
73113;SDS011;61301;51.956;5.876;2024-03-25T15:57:08;5.57;;;2.70;;
73113;SDS011;61301;51.956;5.876;2024-03-25T15:59:35;5.43;;;2.72;;
73113;SDS011;61301;51.956;5.876;2024-03-25T16:02:01;5.28;;;2.83;;
73113;SDS011;61301;51.956;5.876;2024-03-25T16:04:27;5.03;;;3.00;;
73113;SDS011;61301;51.956;5.876;2024-03-25T16:06:55;5.93;;;2.60;;
73113;SDS011;61301;51.956;5.876;2024-03-25T16:09:21;6.80;;;3.13;;
73113;SDS011;61301;51.956;5.876;2024-03-25T16:11:47;7.25;;;2.95;;
73113;SDS011;61301;51.956;5.876;2024-03-25T16:14:15;6.18;;;2.75;;
73113;SDS011;61301;51.956;5.876;2024-03-25T16:16:41;6.07;;;3.20;;
73113;SDS011;61301;51.956;5.876;2024-03-25T16:19:08;6.63;;;2.67;;
73113;SDS011;61301;51.956;5.876;2024-03-25T16:21:34;7.10;;;2.88;;
73113;SDS011;61301;51.956;5.876;2024-03-25T16:24:00;7.00;;;2.67;;
73113;SDS011;61301;51.956;5.876;2024-03-25T16:26:26;6.20;;;3.08;;
73113;SDS011;61301;51.956;5.876;2024-03-25T16:28:52;6.72;;;2.63;;
73113;SDS011;61301;51.956;5.876;2024-03-25T16:31:18;8.88;;;3.08;;
73113;SDS011;61301;51.956;5.876;2024-03-25T16:33:44;6.40;;;2.90;;
73113;SDS011;61301;51.956;5.876;2024-03-25T16:36:10;7.03;;;2.45;;
73113;SDS011;61301;51.956;5.876;2024-03-25T16:38:36;7.65;;;2.97;;
73113;SDS011;61301;51.956;5.876;2024-03-25T16:41:03;6.43;;;2.53;;
73113;SDS011;61301;51.956;5.876;2024-03-25T16:43:29;7.80;;;3.30;;
73113;SDS011;61301;51.956;5.876;2024-03-25T16:45:55;7.28;;;2.90;;
73113;SDS011;61301;51.956;5.876;2024-03-25T16:48:22;8.23;;;2.70;;
73113;SDS011;61301;51.956;5.876;2024-03-25T16:50:48;6.80;;;2.78;;
73113;SDS011;61301;51.956;5.876;2024-03-25T16:53:16;5.05;;;2.58;;
73113;SDS011;61301;51.956;5.876;2024-03-25T16:55:42;8.38;;;2.10;;
73113;SDS011;61301;51.956;5.876;2024-03-25T16:58:09;10.02;;;2.85;;
73113;SDS011;61301;51.956;5.876;2024-03-25T17:00:35;3.58;;;2.00;;
73113;SDS011;61301;51.956;5.876;2024-03-25T17:03:01;4.00;;;2.08;;
73113;SDS011;61301;51.956;5.876;2024-03-25T17:05:28;5.85;;;2.47;;
73113;SDS011;61301;51.956;5.876;2024-03-25T17:07:54;4.53;;;2.40;;
73113;SDS011;61301;51.956;5.876;2024-03-25T17:10:20;5.47;;;1.95;;
73113;SDS011;61301;51.956;5.876;2024-03-25T17:12:46;5.95;;;3.13;;
73113;SDS011;61301;51.956;5.876;2024-03-25T17:15:12;4.97;;;2.53;;
73113;SDS011;61301;51.956;5.876;2024-03-25T17:17:38;4.50;;;2.38;;
73113;SDS011;61301;51.956;5.876;2024-03-25T17:20:04;5.40;;;2.10;;
73113;SDS011;61301;51.956;5.876;2024-03-25T17:22:38;6.85;;;2.70;;
73113;SDS011;61301;51.956;5.876;2024-03-25T17:25:05;6.88;;;2.30;;
73113;SDS011;61301;51.956;5.876;2024-03-25T17:27:31;5.18;;;2.30;;
73113;SDS011;61301;51.956;5.876;2024-03-25T17:29:57;5.47;;;2.28;;
73113;SDS011;61301;51.956;5.876;2024-03-25T17:32:23;5.90;;;2.53;;
73113;SDS011;61301;51.956;5.876;2024-03-25T17:34:50;5.78;;;3.10;;
73113;SDS011;61301;51.956;5.876;2024-03-25T17:37:16;5.72;;;2.53;;
73113;SDS011;61301;51.956;5.876;2024-03-25T17:39:42;7.88;;;2.63;;
73113;SDS011;61301;51.956;5.876;2024-03-25T17:42:08;6.75;;;2.10;;
73113;SDS011;61301;51.956;5.876;2024-03-25T17:44:34;4.38;;;2.17;;
73113;SDS011;61301;51.956;5.876;2024-03-25T17:47:01;3.33;;;2.08;;
73113;SDS011;61301;51.956;5.876;2024-03-25T17:49:28;6.35;;;2.08;;
73113;SDS011;61301;51.956;5.876;2024-03-25T17:51:54;3.95;;;1.75;;
73113;SDS011;61301;51.956;5.876;2024-03-25T17:54:20;5.35;;;2.38;;
73113;SDS011;61301;51.956;5.876;2024-03-25T17:56:46;4.22;;;2.00;;
73113;SDS011;61301;51.956;5.876;2024-03-25T17:59:12;5.10;;;2.33;;
73113;SDS011;61301;51.956;5.876;2024-03-25T18:01:39;8.02;;;2.67;;
73113;SDS011;61301;51.956;5.876;2024-03-25T18:04:05;6.70;;;2.55;;
73113;SDS011;61301;51.956;5.876;2024-03-25T18:06:32;5.13;;;2.30;;
73113;SDS011;61301;51.956;5.876;2024-03-25T18:08:58;7.20;;;3.10;;
73113;SDS011;61301;51.956;5.876;2024-03-25T18:11:24;6.38;;;2.40;;
73113;SDS011;61301;51.956;5.876;2024-03-25T18:13:50;5.30;;;2.65;;
73113;SDS011;61301;51.956;5.876;2024-03-25T18:16:16;5.85;;;2.10;;
73113;SDS011;61301;51.956;5.876;2024-03-25T18:18:44;3.30;;;1.75;;
73113;SDS011;61301;51.956;5.876;2024-03-25T18:21:10;5.80;;;2.58;;
73113;SDS011;61301;51.956;5.876;2024-03-25T18:23:36;3.83;;;1.60;;
73113;SDS011;61301;51.956;5.876;2024-03-25T18:26:02;4.10;;;1.80;;
73113;SDS011;61301;51.956;5.876;2024-03-25T18:28:28;5.18;;;2.00;;
73113;SDS011;61301;51.956;5.876;2024-03-25T18:30:56;4.40;;;2.35;;
73113;SDS011;61301;51.956;5.876;2024-03-25T18:33:23;6.80;;;2.10;;
73113;SDS011;61301;51.956;5.876;2024-03-25T18:35:49;6.72;;;2.08;;
73113;SDS011;61301;51.956;5.876;2024-03-25T18:38:15;5.03;;;2.13;;
73113;SDS011;61301;51.956;5.876;2024-03-25T18:40:41;3.97;;;2.05;;
73113;SDS011;61301;51.956;5.876;2024-03-25T18:43:07;7.30;;;2.20;;
73113;SDS011;61301;51.956;5.876;2024-03-25T18:45:33;4.88;;;2.00;;
73113;SDS011;61301;51.956;5.876;2024-03-25T18:47:59;7.28;;;2.05;;
73113;SDS011;61301;51.956;5.876;2024-03-25T18:50:25;4.90;;;2.00;;
73113;SDS011;61301;51.956;5.876;2024-03-25T18:52:51;5.50;;;2.15;;
73113;SDS011;61301;51.956;5.876;2024-03-25T18:55:17;4.05;;;1.77;;
73113;SDS011;61301;51.956;5.876;2024-03-25T18:57:43;5.38;;;1.90;;
73113;SDS011;61301;51.956;5.876;2024-03-25T19:00:10;6.43;;;2.40;;
73113;SDS011;61301;51.956;5.876;2024-03-25T19:02:37;4.80;;;1.58;;
73113;SDS011;61301;51.956;5.876;2024-03-25T19:05:03;6.30;;;2.60;;
73113;SDS011;61301;51.956;5.876;2024-03-25T19:07:30;4.47;;;2.00;;
73113;SDS011;61301;51.956;5.876;2024-03-25T19:09:57;4.28;;;1.88;;
73113;SDS011;61301;51.956;5.876;2024-03-25T19:12:23;6.22;;;2.30;;
73113;SDS011;61301;51.956;5.876;2024-03-25T19:14:49;6.25;;;3.00;;
73113;SDS011;61301;51.956;5.876;2024-03-25T19:17:15;6.10;;;2.53;;
73113;SDS011;61301;51.956;5.876;2024-03-25T19:19:41;9.45;;;3.00;;
73113;SDS011;61301;51.956;5.876;2024-03-25T19:22:07;5.40;;;2.30;;
73113;SDS011;61301;51.956;5.876;2024-03-25T19:24:33;7.15;;;2.95;;
73113;SDS011;61301;51.956;5.876;2024-03-25T19:26:59;5.80;;;2.13;;
73113;SDS011;61301;51.956;5.876;2024-03-25T19:29:26;7.40;;;2.53;;
73113;SDS011;61301;51.956;5.876;2024-03-25T19:31:52;6.43;;;2.88;;
73113;SDS011;61301;51.956;5.876;2024-03-25T19:34:18;9.60;;;2.95;;
73113;SDS011;61301;51.956;5.876;2024-03-25T19:36:44;8.07;;;2.47;;
73113;SDS011;61301;51.956;5.876;2024-03-25T19:39:10;6.95;;;2.35;;
73113;SDS011;61301;51.956;5.876;2024-03-25T19:41:36;12.68;;;2.78;;
73113;SDS011;61301;51.956;5.876;2024-03-25T19:44:02;5.45;;;2.20;;
73113;SDS011;61301;51.956;5.876;2024-03-25T19:46:29;6.40;;;2.25;;
73113;SDS011;61301;51.956;5.876;2024-03-25T19:48:55;7.18;;;2.50;;
73113;SDS011;61301;51.956;5.876;2024-03-25T19:51:22;7.25;;;2.03;;
73113;SDS011;61301;51.956;5.876;2024-03-25T19:53:48;6.72;;;2.40;;
73113;SDS011;61301;51.956;5.876;2024-03-25T19:56:14;8.48;;;2.63;;
73113;SDS011;61301;51.956;5.876;2024-03-25T19:58:40;7.30;;;2.85;;
73113;SDS011;61301;51.956;5.876;2024-03-25T20:01:09;7.25;;;3.47;;
73113;SDS011;61301;51.956;5.876;2024-03-25T20:03:36;6.18;;;2.80;;
73113;SDS011;61301;51.956;5.876;2024-03-25T20:06:04;9.68;;;3.40;;
73113;SDS011;61301;51.956;5.876;2024-03-25T20:08:31;8.45;;;3.10;;
73113;SDS011;61301;51.956;5.876;2024-03-25T20:11:01;8.27;;;3.20;;
73113;SDS011;61301;51.956;5.876;2024-03-25T20:13:27;6.43;;;2.58;;
73113;SDS011;61301;51.956;5.876;2024-03-25T20:15:53;5.78;;;2.42;;
73113;SDS011;61301;51.956;5.876;2024-03-25T20:18:19;6.85;;;2.95;;
73113;SDS011;61301;51.956;5.876;2024-03-25T20:20:45;4.88;;;2.60;;
73113;SDS011;61301;51.956;5.876;2024-03-25T20:23:11;7.43;;;2.50;;
73113;SDS011;61301;51.956;5.876;2024-03-25T20:25:37;8.57;;;2.83;;
73113;SDS011;61301;51.956;5.876;2024-03-25T20:28:04;8.82;;;3.65;;
73113;SDS011;61301;51.956;5.876;2024-03-25T20:30:30;8.75;;;4.00;;
73113;SDS011;61301;51.956;5.876;2024-03-25T20:32:56;14.25;;;4.07;;
73113;SDS011;61301;51.956;5.876;2024-03-25T20:35:24;8.93;;;3.33;;
73113;SDS011;61301;51.956;5.876;2024-03-25T20:37:51;7.07;;;2.83;;
73113;SDS011;61301;51.956;5.876;2024-03-25T20:40:17;6.38;;;2.28;;
73113;SDS011;61301;51.956;5.876;2024-03-25T20:42:43;9.75;;;3.15;;
73113;SDS011;61301;51.956;5.876;2024-03-25T20:45:09;8.43;;;2.88;;
73113;SDS011;61301;51.956;5.876;2024-03-25T20:47:35;7.60;;;2.80;;